Weather at Barwon Heads Airport

Public forecast

Using degrees Celsius for public forecast. Weather courtesy of forecast.io.

Closest aviation weather report (METAR) to Barwon Heads Airport

Closest report is Avalon Airport, 13.2 nm (24.4 km) N.

2024/05/30 16:30 (retrieved 40 minutes ago)

YMAV 301630Z AUTO 33013KT 9999 // NCD 14/08 Q1007 RF000/0032

Closest aviation forecast (TAF) to Barwon Heads Airport

Closest forecast is Avalon Airport, 13.2 nm (24.4 km) N.

2024/05/30 15:12 Ammendment (retrieved 2 hours ago)

AMD YMAV 301510Z 3015/3112 31018G28KT CAVOK FM301800 32014KT 9999 SCT030 FM310000 30020G30KT 9999 SCT040 BECMG 3105/3107 29012KT 9999 FEW040